sensor_id;sensor_type;location;lat;lon;timestamp;P1;durP1;ratioP1;P2;durP2;ratioP2
12758;SDS011;20944;47.048;15.390;2022-12-17T00:00:23;4.20;;;2.93;;
12758;SDS011;20944;47.048;15.390;2022-12-17T00:03:09;5.67;;;4.50;;
12758;SDS011;20944;47.048;15.390;2022-12-17T00:05:55;3.20;;;2.60;;
12758;SDS011;20944;47.048;15.390;2022-12-17T00:08:41;4.60;;;3.43;;
12758;SDS011;20944;47.048;15.390;2022-12-17T00:11:26;4.17;;;2.67;;
12758;SDS011;20944;47.048;15.390;2022-12-17T00:14:11;5.40;;;3.23;;
12758;SDS011;20944;47.048;15.390;2022-12-17T00:17:08;6.80;;;2.80;;
12758;SDS011;20944;47.048;15.390;2022-12-17T00:19:56;4.73;;;4.10;;
12758;SDS011;20944;47.048;15.390;2022-12-17T00:22:41;2.60;;;1.90;;
12758;SDS011;20944;47.048;15.390;2022-12-17T00:25:26;6.80;;;3.97;;
12758;SDS011;20944;47.048;15.390;2022-12-17T00:28:12;4.83;;;3.63;;
12758;SDS011;20944;47.048;15.390;2022-12-17T00:30:58;3.77;;;3.07;;
12758;SDS011;20944;47.048;15.390;2022-12-17T00:33:45;4.00;;;3.47;;
12758;SDS011;20944;47.048;15.390;2022-12-17T00:36:32;5.40;;;4.90;;
12758;SDS011;20944;47.048;15.390;2022-12-17T00:39:17;8.23;;;5.43;;
12758;SDS011;20944;47.048;15.390;2022-12-17T00:42:03;7.10;;;3.77;;
12758;SDS011;20944;47.048;15.390;2022-12-17T00:44:48;8.00;;;3.63;;
12758;SDS011;20944;47.048;15.390;2022-12-17T00:47:35;4.03;;;2.50;;
12758;SDS011;20944;47.048;15.390;2022-12-17T00:50:22;9.90;;;4.03;;
12758;SDS011;20944;47.048;15.390;2022-12-17T00:53:09;4.90;;;3.63;;
12758;SDS011;20944;47.048;15.390;2022-12-17T00:55:54;5.17;;;3.27;;
12758;SDS011;20944;47.048;15.390;2022-12-17T00:58:39;4.80;;;3.00;;
12758;SDS011;20944;47.048;15.390;2022-12-17T01:01:25;5.43;;;4.20;;
12758;SDS011;20944;47.048;15.390;2022-12-17T01:04:11;9.00;;;4.93;;
12758;SDS011;20944;47.048;15.390;2022-12-17T01:06:56;3.57;;;2.20;;
12758;SDS011;20944;47.048;15.390;2022-12-17T01:09:43;4.43;;;3.70;;
12758;SDS011;20944;47.048;15.390;2022-12-17T01:12:29;4.23;;;3.40;;
12758;SDS011;20944;47.048;15.390;2022-12-17T01:15:14;8.27;;;4.20;;
12758;SDS011;20944;47.048;15.390;2022-12-17T01:18:00;7.13;;;4.13;;
12758;SDS011;20944;47.048;15.390;2022-12-17T01:20:45;5.27;;;3.57;;
12758;SDS011;20944;47.048;15.390;2022-12-17T01:23:31;3.83;;;3.23;;
12758;SDS011;20944;47.048;15.390;2022-12-17T01:26:18;3.23;;;2.73;;
12758;SDS011;20944;47.048;15.390;2022-12-17T01:29:03;4.47;;;2.30;;
12758;SDS011;20944;47.048;15.390;2022-12-17T01:31:49;2.93;;;2.57;;
12758;SDS011;20944;47.048;15.390;2022-12-17T01:34:34;5.87;;;3.20;;
12758;SDS011;20944;47.048;15.390;2022-12-17T01:37:35;6.67;;;3.40;;
12758;SDS011;20944;47.048;15.390;2022-12-17T01:40:20;4.57;;;3.87;;
12758;SDS011;20944;47.048;15.390;2022-12-17T01:43:09;5.13;;;3.43;;
12758;SDS011;20944;47.048;15.390;2022-12-17T01:45:56;3.53;;;2.57;;
12758;SDS011;20944;47.048;15.390;2022-12-17T01:48:43;3.10;;;2.67;;
12758;SDS011;20944;47.048;15.390;2022-12-17T01:51:31;2.50;;;2.07;;
12758;SDS011;20944;47.048;15.390;2022-12-17T01:54:19;7.07;;;3.20;;
12758;SDS011;20944;47.048;15.390;2022-12-17T01:57:04;5.80;;;3.13;;
12758;SDS011;20944;47.048;15.390;2022-12-17T01:59:55;3.20;;;2.07;;
12758;SDS011;20944;47.048;15.390;2022-12-17T02:02:44;3.30;;;2.73;;
12758;SDS011;20944;47.048;15.390;2022-12-17T02:05:31;2.23;;;1.90;;
12758;SDS011;20944;47.048;15.390;2022-12-17T02:08:23;5.43;;;4.00;;
12758;SDS011;20944;47.048;15.390;2022-12-17T02:11:16;8.47;;;3.30;;
12758;SDS011;20944;47.048;15.390;2022-12-17T02:14:22;3.37;;;2.20;;
12758;SDS011;20944;47.048;15.390;2022-12-17T02:17:18;3.80;;;3.43;;
12758;SDS011;20944;47.048;15.390;2022-12-17T02:20:12;4.07;;;3.13;;
12758;SDS011;20944;47.048;15.390;2022-12-17T02:23:07;3.73;;;3.13;;
12758;SDS011;20944;47.048;15.390;2022-12-17T02:25:58;4.50;;;3.80;;
12758;SDS011;20944;47.048;15.390;2022-12-17T02:28:49;3.47;;;3.17;;
12758;SDS011;20944;47.048;15.390;2022-12-17T02:31:38;4.80;;;2.73;;
12758;SDS011;20944;47.048;15.390;2022-12-17T02:34:24;6.23;;;2.50;;
12758;SDS011;20944;47.048;15.390;2022-12-17T02:37:10;7.90;;;2.93;;
12758;SDS011;20944;47.048;15.390;2022-12-17T02:39:55;2.30;;;1.90;;
12758;SDS011;20944;47.048;15.390;2022-12-17T02:42:41;4.73;;;2.73;;
12758;SDS011;20944;47.048;15.390;2022-12-17T02:45:30;3.37;;;2.97;;
12758;SDS011;20944;47.048;15.390;2022-12-17T02:48:17;3.50;;;1.93;;
12758;SDS011;20944;47.048;15.390;2022-12-17T02:51:03;7.20;;;3.03;;
12758;SDS011;20944;47.048;15.390;2022-12-17T02:53:49;2.90;;;2.27;;
12758;SDS011;20944;47.048;15.390;2022-12-17T02:56:38;3.83;;;2.97;;
12758;SDS011;20944;47.048;15.390;2022-12-17T02:59:23;4.20;;;2.70;;
12758;SDS011;20944;47.048;15.390;2022-12-17T03:02:25;1.73;;;1.50;;
12758;SDS011;20944;47.048;15.390;2022-12-17T03:05:10;9.63;;;4.10;;
12758;SDS011;20944;47.048;15.390;2022-12-17T03:08:11;4.67;;;2.93;;
12758;SDS011;20944;47.048;15.390;2022-12-17T03:10:57;5.53;;;3.53;;
12758;SDS011;20944;47.048;15.390;2022-12-17T03:13:43;2.83;;;2.03;;
12758;SDS011;20944;47.048;15.390;2022-12-17T03:16:29;3.87;;;2.97;;
12758;SDS011;20944;47.048;15.390;2022-12-17T03:19:18;3.17;;;2.90;;
12758;SDS011;20944;47.048;15.390;2022-12-17T03:22:04;6.73;;;3.07;;
12758;SDS011;20944;47.048;15.390;2022-12-17T03:24:50;2.97;;;2.63;;
12758;SDS011;20944;47.048;15.390;2022-12-17T03:27:35;1.93;;;1.63;;
12758;SDS011;20944;47.048;15.390;2022-12-17T03:30:21;2.20;;;1.87;;
12758;SDS011;20944;47.048;15.390;2022-12-17T03:33:14;3.97;;;2.90;;
12758;SDS011;20944;47.048;15.390;2022-12-17T03:36:01;6.00;;;3.70;;
12758;SDS011;20944;47.048;15.390;2022-12-17T03:38:46;5.07;;;4.10;;
12758;SDS011;20944;47.048;15.390;2022-12-17T03:41:32;6.97;;;3.37;;
12758;SDS011;20944;47.048;15.390;2022-12-17T03:44:18;4.77;;;2.57;;
12758;SDS011;20944;47.048;15.390;2022-12-17T03:47:03;4.47;;;2.63;;
12758;SDS011;20944;47.048;15.390;2022-12-17T03:49:49;4.17;;;2.50;;
12758;SDS011;20944;47.048;15.390;2022-12-17T03:52:36;3.57;;;3.27;;
12758;SDS011;20944;47.048;15.390;2022-12-17T03:55:21;3.60;;;2.70;;
12758;SDS011;20944;47.048;15.390;2022-12-17T03:58:07;4.40;;;2.93;;
12758;SDS011;20944;47.048;15.390;2022-12-17T04:00:53;2.60;;;2.13;;
12758;SDS011;20944;47.048;15.390;2022-12-17T04:03:38;4.10;;;3.63;;
12758;SDS011;20944;47.048;15.390;2022-12-17T04:06:23;2.93;;;2.63;;
12758;SDS011;20944;47.048;15.390;2022-12-17T04:09:10;5.67;;;2.97;;
12758;SDS011;20944;47.048;15.390;2022-12-17T04:11:55;5.40;;;3.37;;
12758;SDS011;20944;47.048;15.390;2022-12-17T04:14:40;4.23;;;3.23;;
12758;SDS011;20944;47.048;15.390;2022-12-17T04:17:26;6.30;;;3.33;;
12758;SDS011;20944;47.048;15.390;2022-12-17T04:20:08;5.37;;;3.23;;
12758;SDS011;20944;47.048;15.390;2022-12-17T04:22:54;4.40;;;2.27;;
12758;SDS011;20944;47.048;15.390;2022-12-17T04:25:41;6.33;;;2.93;;
12758;SDS011;20944;47.048;15.390;2022-12-17T04:28:27;2.23;;;1.63;;
12758;SDS011;20944;47.048;15.390;2022-12-17T04:31:12;1.90;;;1.63;;
12758;SDS011;20944;47.048;15.390;2022-12-17T04:33:58;3.40;;;2.83;;
12758;SDS011;20944;47.048;15.390;2022-12-17T04:36:43;3.60;;;3.20;;
12758;SDS011;20944;47.048;15.390;2022-12-17T04:39:29;4.93;;;3.73;;
12758;SDS011;20944;47.048;15.390;2022-12-17T04:42:16;4.83;;;3.63;;
12758;SDS011;20944;47.048;15.390;2022-12-17T04:45:02;6.63;;;2.50;;
12758;SDS011;20944;47.048;15.390;2022-12-17T04:47:49;4.73;;;4.10;;
12758;SDS011;20944;47.048;15.390;2022-12-17T04:50:34;3.83;;;1.80;;
12758;SDS011;20944;47.048;15.390;2022-12-17T04:53:20;4.67;;;2.93;;
12758;SDS011;20944;47.048;15.390;2022-12-17T04:56:05;3.63;;;2.13;;
12758;SDS011;20944;47.048;15.390;2022-12-17T04:59:00;2.27;;;1.53;;
12758;SDS011;20944;47.048;15.390;2022-12-17T05:01:42;2.50;;;1.43;;
12758;SDS011;20944;47.048;15.390;2022-12-17T05:04:28;1.80;;;1.30;;
12758;SDS011;20944;47.048;15.390;2022-12-17T05:07:13;1.90;;;1.70;;
12758;SDS011;20944;47.048;15.390;2022-12-17T05:09:59;1.53;;;1.43;;
12758;SDS011;20944;47.048;15.390;2022-12-17T05:12:44;2.43;;;1.50;;
12758;SDS011;20944;47.048;15.390;2022-12-17T05:15:31;1.40;;;0.50;;
12758;SDS011;20944;47.048;15.390;2022-12-17T05:18:18;1.50;;;1.17;;
12758;SDS011;20944;47.048;15.390;2022-12-17T05:21:04;2.03;;;1.20;;
12758;SDS011;20944;47.048;15.390;2022-12-17T05:23:55;2.17;;;1.97;;
12758;SDS011;20944;47.048;15.390;2022-12-17T05:26:41;3.17;;;0.50;;
12758;SDS011;20944;47.048;15.390;2022-12-17T05:29:26;2.53;;;0.93;;
12758;SDS011;20944;47.048;15.390;2022-12-17T05:32:13;1.33;;;1.23;;
12758;SDS011;20944;47.048;15.390;2022-12-17T05:34:59;1.50;;;1.40;;
12758;SDS011;20944;47.048;15.390;2022-12-17T05:37:44;1.53;;;0.93;;
12758;SDS011;20944;47.048;15.390;2022-12-17T05:40:30;2.37;;;1.40;;
12758;SDS011;20944;47.048;15.390;2022-12-17T05:43:16;1.57;;;0.63;;
12758;SDS011;20944;47.048;15.390;2022-12-17T05:46:02;2.93;;;1.13;;
12758;SDS011;20944;47.048;15.390;2022-12-17T05:48:49;1.17;;;1.07;;
12758;SDS011;20944;47.048;15.390;2022-12-17T05:51:35;2.10;;;1.27;;
12758;SDS011;20944;47.048;15.390;2022-12-17T05:54:20;1.27;;;0.63;;
12758;SDS011;20944;47.048;15.390;2022-12-17T05:57:06;2.03;;;0.90;;
12758;SDS011;20944;47.048;15.390;2022-12-17T05:59:51;1.27;;;0.70;;
12758;SDS011;20944;47.048;15.390;2022-12-17T06:02:37;3.73;;;0.97;;
12758;SDS011;20944;47.048;15.390;2022-12-17T06:05:24;0.97;;;0.73;;
12758;SDS011;20944;47.048;15.390;2022-12-17T06:08:09;0.47;;;0.47;;
12758;SDS011;20944;47.048;15.390;2022-12-17T06:10:56;1.73;;;1.10;;
12758;SDS011;20944;47.048;15.390;2022-12-17T06:13:44;2.57;;;1.73;;
12758;SDS011;20944;47.048;15.390;2022-12-17T06:16:31;2.40;;;0.93;;
12758;SDS011;20944;47.048;15.390;2022-12-17T06:19:16;1.90;;;1.53;;
12758;SDS011;20944;47.048;15.390;2022-12-17T06:22:03;1.37;;;0.80;;
12758;SDS011;20944;47.048;15.390;2022-12-17T06:24:45;1.63;;;0.90;;
12758;SDS011;20944;47.048;15.390;2022-12-17T06:27:30;0.77;;;0.77;;
12758;SDS011;20944;47.048;15.390;2022-12-17T06:30:16;0.83;;;0.33;;
12758;SDS011;20944;47.048;15.390;2022-12-17T06:33:03;1.33;;;0.90;;
12758;SDS011;20944;47.048;15.390;2022-12-17T06:35:50;0.63;;;0.63;;
12758;SDS011;20944;47.048;15.390;2022-12-17T06:38:46;1.13;;;0.57;;
12758;SDS011;20944;47.048;15.390;2022-12-17T06:41:40;1.00;;;0.90;;
12758;SDS011;20944;47.048;15.390;2022-12-17T06:44:30;1.43;;;1.17;;
12758;SDS011;20944;47.048;15.390;2022-12-17T06:47:16;0.93;;;0.90;;
12758;SDS011;20944;47.048;15.390;2022-12-17T06:50:02;0.80;;;0.40;;
12758;SDS011;20944;47.048;15.390;2022-12-17T06:52:56;0.77;;;0.57;;
12758;SDS011;20944;47.048;15.390;2022-12-17T06:55:40;0.50;;;0.50;;
12758;SDS011;20944;47.048;15.390;2022-12-17T06:58:26;0.80;;;0.67;;
12758;SDS011;20944;47.048;15.390;2022-12-17T07:01:11;0.83;;;0.30;;
12758;SDS011;20944;47.048;15.390;2022-12-17T07:03:57;0.93;;;0.80;;
12758;SDS011;20944;47.048;15.390;2022-12-17T07:06:43;0.90;;;0.67;;
12758;SDS011;20944;47.048;15.390;2022-12-17T07:09:28;1.43;;;1.17;;
12758;SDS011;20944;47.048;15.390;2022-12-17T07:12:16;2.47;;;0.60;;
12758;SDS011;20944;47.048;15.390;2022-12-17T07:15:02;2.00;;;1.13;;
12758;SDS011;20944;47.048;15.390;2022-12-17T07:17:57;2.07;;;0.80;;
12758;SDS011;20944;47.048;15.390;2022-12-17T07:20:44;0.70;;;0.70;;
12758;SDS011;20944;47.048;15.390;2022-12-17T07:23:30;2.67;;;0.80;;
12758;SDS011;20944;47.048;15.390;2022-12-17T07:26:16;2.63;;;1.63;;
12758;SDS011;20944;47.048;15.390;2022-12-17T07:29:03;0.97;;;0.77;;
12758;SDS011;20944;47.048;15.390;2022-12-17T07:31:49;1.90;;;1.70;;
12758;SDS011;20944;47.048;15.390;2022-12-17T07:34:35;1.10;;;0.67;;
12758;SDS011;20944;47.048;15.390;2022-12-17T07:37:20;1.23;;;0.73;;
12758;SDS011;20944;47.048;15.390;2022-12-17T07:40:06;3.13;;;1.70;;
12758;SDS011;20944;47.048;15.390;2022-12-17T07:42:52;2.77;;;1.73;;
12758;SDS011;20944;47.048;15.390;2022-12-17T07:45:42;4.20;;;1.87;;
12758;SDS011;20944;47.048;15.390;2022-12-17T07:48:29;1.60;;;0.90;;
12758;SDS011;20944;47.048;15.390;2022-12-17T07:51:14;1.67;;;0.87;;
12758;SDS011;20944;47.048;15.390;2022-12-17T07:54:00;0.60;;;0.60;;
12758;SDS011;20944;47.048;15.390;2022-12-17T07:56:45;2.67;;;1.20;;
12758;SDS011;20944;47.048;15.390;2022-12-17T07:59:31;1.47;;;0.93;;
12758;SDS011;20944;47.048;15.390;2022-12-17T08:02:18;0.60;;;0.60;;
12758;SDS011;20944;47.048;15.390;2022-12-17T08:05:05;0.87;;;0.70;;
12758;SDS011;20944;47.048;15.390;2022-12-17T08:07:51;1.07;;;0.83;;
12758;SDS011;20944;47.048;15.390;2022-12-17T08:10:36;0.30;;;0.30;;
12758;SDS011;20944;47.048;15.390;2022-12-17T08:13:21;2.00;;;1.13;;
12758;SDS011;20944;47.048;15.390;2022-12-17T08:16:07;1.00;;;0.80;;
12758;SDS011;20944;47.048;15.390;2022-12-17T08:18:56;1.30;;;0.67;;
12758;SDS011;20944;47.048;15.390;2022-12-17T08:21:42;0.73;;;0.73;;
12758;SDS011;20944;47.048;15.390;2022-12-17T08:24:28;3.30;;;2.23;;
12758;SDS011;20944;47.048;15.390;2022-12-17T08:27:13;3.33;;;2.57;;
12758;SDS011;20944;47.048;15.390;2022-12-17T08:29:59;3.43;;;2.00;;
12758;SDS011;20944;47.048;15.390;2022-12-17T08:32:44;3.17;;;2.87;;
12758;SDS011;20944;47.048;15.390;2022-12-17T08:35:31;3.50;;;1.97;;
12758;SDS011;20944;47.048;15.390;2022-12-17T08:38:17;2.77;;;1.70;;
12758;SDS011;20944;47.048;15.390;2022-12-17T08:41:02;5.90;;;2.47;;
12758;SDS011;20944;47.048;15.390;2022-12-17T08:43:48;5.13;;;2.13;;
12758;SDS011;20944;47.048;15.390;2022-12-17T08:46:34;3.03;;;2.10;;
12758;SDS011;20944;47.048;15.390;2022-12-17T08:49:19;5.20;;;3.03;;
12758;SDS011;20944;47.048;15.390;2022-12-17T08:52:06;4.77;;;2.70;;
12758;SDS011;20944;47.048;15.390;2022-12-17T08:54:51;5.40;;;2.20;;
12758;SDS011;20944;47.048;15.390;2022-12-17T08:57:37;1.90;;;1.27;;
12758;SDS011;20944;47.048;15.390;2022-12-17T09:00:23;5.53;;;3.07;;
12758;SDS011;20944;47.048;15.390;2022-12-17T09:03:08;6.07;;;3.10;;
12758;SDS011;20944;47.048;15.390;2022-12-17T09:05:54;2.73;;;1.30;;
12758;SDS011;20944;47.048;15.390;2022-12-17T09:08:40;2.23;;;2.13;;
12758;SDS011;20944;47.048;15.390;2022-12-17T09:11:26;3.30;;;1.77;;
12758;SDS011;20944;47.048;15.390;2022-12-17T09:14:11;3.60;;;2.53;;
12758;SDS011;20944;47.048;15.390;2022-12-17T09:16:57;3.10;;;2.40;;
12758;SDS011;20944;47.048;15.390;2022-12-17T09:19:42;2.20;;;1.70;;
12758;SDS011;20944;47.048;15.390;2022-12-17T09:22:28;1.80;;;1.67;;
12758;SDS011;20944;47.048;15.390;2022-12-17T09:25:14;4.27;;;2.50;;
12758;SDS011;20944;47.048;15.390;2022-12-17T09:28:00;2.57;;;1.77;;
12758;SDS011;20944;47.048;15.390;2022-12-17T09:30:46;4.40;;;1.57;;
12758;SDS011;20944;47.048;15.390;2022-12-17T09:33:32;3.53;;;2.17;;
12758;SDS011;20944;47.048;15.390;2022-12-17T09:36:18;3.97;;;2.57;;
12758;SDS011;20944;47.048;15.390;2022-12-17T09:39:04;2.97;;;2.60;;
12758;SDS011;20944;47.048;15.390;2022-12-17T09:41:52;1.93;;;1.73;;
12758;SDS011;20944;47.048;15.390;2022-12-17T09:44:46;1.80;;;1.43;;
12758;SDS011;20944;47.048;15.390;2022-12-17T09:47:38;5.37;;;2.07;;
12758;SDS011;20944;47.048;15.390;2022-12-17T09:50:33;5.60;;;1.77;;
12758;SDS011;20944;47.048;15.390;2022-12-17T09:53:20;3.37;;;2.40;;
12758;SDS011;20944;47.048;15.390;2022-12-17T09:56:12;3.20;;;1.63;;
12758;SDS011;20944;47.048;15.390;2022-12-17T09:59:00;2.73;;;2.17;;
12758;SDS011;20944;47.048;15.390;2022-12-17T10:01:46;2.30;;;1.73;;
12758;SDS011;20944;47.048;15.390;2022-12-17T10:04:33;4.20;;;2.60;;
12758;SDS011;20944;47.048;15.390;2022-12-17T10:07:21;2.33;;;2.13;;
12758;SDS011;20944;47.048;15.390;2022-12-17T10:10:14;2.10;;;0.90;;
12758;SDS011;20944;47.048;15.390;2022-12-17T10:13:06;1.83;;;1.67;;
12758;SDS011;20944;47.048;15.390;2022-12-17T10:15:56;1.93;;;1.80;;
12758;SDS011;20944;47.048;15.390;2022-12-17T10:18:42;3.37;;;1.10;;
12758;SDS011;20944;47.048;15.390;2022-12-17T10:21:28;2.83;;;1.43;;
12758;SDS011;20944;47.048;15.390;2022-12-17T10:24:17;2.30;;;1.80;;
12758;SDS011;20944;47.048;15.390;2022-12-17T10:27:07;3.80;;;1.53;;
12758;SDS011;20944;47.048;15.390;2022-12-17T10:29:53;2.90;;;2.60;;
12758;SDS011;20944;47.048;15.390;2022-12-17T10:32:40;2.53;;;1.27;;
12758;SDS011;20944;47.048;15.390;2022-12-17T10:35:37;2.90;;;2.27;;
12758;SDS011;20944;47.048;15.390;2022-12-17T10:38:25;1.50;;;1.40;;
12758;SDS011;20944;47.048;15.390;2022-12-17T10:41:22;2.40;;;2.03;;
12758;SDS011;20944;47.048;15.390;2022-12-17T10:44:21;2.70;;;1.90;;
12758;SDS011;20944;47.048;15.390;2022-12-17T10:47:09;1.90;;;1.50;;
12758;SDS011;20944;47.048;15.390;2022-12-17T10:49:58;2.70;;;2.50;;
12758;SDS011;20944;47.048;15.390;2022-12-17T10:52:45;3.33;;;3.03;;
12758;SDS011;20944;47.048;15.390;2022-12-17T10:55:32;2.50;;;1.97;;
12758;SDS011;20944;47.048;15.390;2022-12-17T10:58:20;2.83;;;1.87;;
12758;SDS011;20944;47.048;15.390;2022-12-17T11:01:09;2.70;;;1.67;;
12758;SDS011;20944;47.048;15.390;2022-12-17T11:03:57;2.00;;;1.50;;
12758;SDS011;20944;47.048;15.390;2022-12-17T11:06:45;3.37;;;2.47;;
12758;SDS011;20944;47.048;15.390;2022-12-17T11:09:37;2.87;;;2.20;;
12758;SDS011;20944;47.048;15.390;2022-12-17T11:12:35;3.20;;;2.47;;
12758;SDS011;20944;47.048;15.390;2022-12-17T11:15:24;2.50;;;1.80;;
12758;SDS011;20944;47.048;15.390;2022-12-17T11:18:16;3.40;;;3.13;;
12758;SDS011;20944;47.048;15.390;2022-12-17T11:21:05;3.13;;;2.13;;
12758;SDS011;20944;47.048;15.390;2022-12-17T11:23:56;5.43;;;3.03;;
12758;SDS011;20944;47.048;15.390;2022-12-17T11:26:49;3.27;;;1.40;;
12758;SDS011;20944;47.048;15.390;2022-12-17T11:29:37;2.13;;;1.70;;
12758;SDS011;20944;47.048;15.390;2022-12-17T11:35:33;3.33;;;1.80;;
12758;SDS011;20944;47.048;15.390;2022-12-17T11:38:36;3.50;;;1.63;;
12758;SDS011;20944;47.048;15.390;2022-12-17T11:41:42;2.80;;;2.50;;
12758;SDS011;20944;47.048;15.390;2022-12-17T11:44:41;2.10;;;1.43;;
12758;SDS011;20944;47.048;15.390;2022-12-17T11:47:37;5.40;;;1.03;;
12758;SDS011;20944;47.048;15.390;2022-12-17T11:50:31;2.43;;;1.73;;
12758;SDS011;20944;47.048;15.390;2022-12-17T11:53:32;2.33;;;2.17;;
12758;SDS011;20944;47.048;15.390;2022-12-17T11:56:31;6.00;;;2.27;;
12758;SDS011;20944;47.048;15.390;2022-12-17T11:59:25;2.50;;;2.27;;
12758;SDS011;20944;47.048;15.390;2022-12-17T12:02:25;1.47;;;1.13;;
12758;SDS011;20944;47.048;15.390;2022-12-17T12:05:23;2.33;;;2.13;;
12758;SDS011;20944;47.048;15.390;2022-12-17T12:08:22;2.23;;;1.53;;
12758;SDS011;20944;47.048;15.390;2022-12-17T12:11:11;1.40;;;1.30;;
12758;SDS011;20944;47.048;15.390;2022-12-17T12:14:08;1.50;;;1.37;;
12758;SDS011;20944;47.048;15.390;2022-12-17T12:17:18;2.87;;;1.47;;
12758;SDS011;20944;47.048;15.390;2022-12-17T12:20:20;2.37;;;2.07;;
12758;SDS011;20944;47.048;15.390;2022-12-17T12:23:32;2.93;;;1.70;;
12758;SDS011;20944;47.048;15.390;2022-12-17T12:26:28;3.10;;;2.33;;
12758;SDS011;20944;47.048;15.390;2022-12-17T12:29:22;1.00;;;0.97;;
12758;SDS011;20944;47.048;15.390;2022-12-17T12:32:16;2.27;;;2.07;;
12758;SDS011;20944;47.048;15.390;2022-12-17T12:35:11;4.67;;;1.67;;
12758;SDS011;20944;47.048;15.390;2022-12-17T12:38:00;1.87;;;1.53;;
12758;SDS011;20944;47.048;15.390;2022-12-17T12:40:47;4.23;;;1.50;;
12758;SDS011;20944;47.048;15.390;2022-12-17T12:43:50;1.80;;;1.23;;
12758;SDS011;20944;47.048;15.390;2022-12-17T12:46:45;3.60;;;1.67;;
12758;SDS011;20944;47.048;15.390;2022-12-17T12:49:40;1.70;;;1.10;;
12758;SDS011;20944;47.048;15.390;2022-12-17T12:52:29;0.73;;;0.73;;
12758;SDS011;20944;47.048;15.390;2022-12-17T12:55:15;1.57;;;1.10;;
12758;SDS011;20944;47.048;15.390;2022-12-17T12:58:03;2.47;;;0.80;;
12758;SDS011;20944;47.048;15.390;2022-12-17T13:00:51;1.37;;;0.87;;
12758;SDS011;20944;47.048;15.390;2022-12-17T13:03:39;1.13;;;0.30;;
12758;SDS011;20944;47.048;15.390;2022-12-17T13:06:40;0.50;;;0.40;;
12758;SDS011;20944;47.048;15.390;2022-12-17T13:09:21;0.77;;;0.77;;
12758;SDS011;20944;47.048;15.390;2022-12-17T13:14:58;0.10;;;0.10;;
12758;SDS011;20944;47.048;15.390;2022-12-17T13:17:37;0.10;;;0.10;;
12758;SDS011;20944;47.048;15.390;2022-12-17T13:20:22;1.00;;;0.40;;
12758;SDS011;20944;47.048;15.390;2022-12-17T13:23:04;0.00;;;0.00;;
12758;SDS011;20944;47.048;15.390;2022-12-17T13:25:44;0.37;;;0.10;;
12758;SDS011;20944;47.048;15.390;2022-12-17T13:31:03;0.47;;;0.10;;
12758;SDS011;20944;47.048;15.390;2022-12-17T13:33:34;1.93;;;0.20;;
12758;SDS011;20944;47.048;15.390;2022-12-17T13:36:11;1.80;;;0.10;;
12758;SDS011;20944;47.048;15.390;2022-12-17T13:38:52;0.80;;;0.57;;
12758;SDS011;20944;47.048;15.390;2022-12-17T13:41:25;0.00;;;0.00;;
12758;SDS011;20944;47.048;15.390;2022-12-17T13:43:56;0.40;;;0.17;;
12758;SDS011;20944;47.048;15.390;2022-12-17T13:46:28;0.10;;;0.10;;
12758;SDS011;20944;47.048;15.390;2022-12-17T13:49:03;0.40;;;0.13;;
12758;SDS011;20944;47.048;15.390;2022-12-17T13:51:42;0.20;;;0.10;;
12758;SDS011;20944;47.048;15.390;2022-12-17T13:54:14;0.63;;;0.63;;
12758;SDS011;20944;47.048;15.390;2022-12-17T13:56:44;0.10;;;0.00;;
12758;SDS011;20944;47.048;15.390;2022-12-17T13:59:16;0.07;;;0.07;;
12758;SDS011;20944;47.048;15.390;2022-12-17T14:01:48;1.47;;;0.10;;
12758;SDS011;20944;47.048;15.390;2022-12-17T14:04:18;0.00;;;0.00;;
12758;SDS011;20944;47.048;15.390;2022-12-17T14:06:49;0.00;;;0.00;;
12758;SDS011;20944;47.048;15.390;2022-12-17T14:09:21;0.10;;;0.10;;
12758;SDS011;20944;47.048;15.390;2022-12-17T14:11:53;0.53;;;0.40;;
12758;SDS011;20944;47.048;15.390;2022-12-17T14:14:39;1.30;;;0.73;;
12758;SDS011;20944;47.048;15.390;2022-12-17T14:17:15;0.00;;;0.00;;
12758;SDS011;20944;47.048;15.390;2022-12-17T14:19:45;0.23;;;0.17;;
12758;SDS011;20944;47.048;15.390;2022-12-17T14:22:15;0.20;;;0.10;;
12758;SDS011;20944;47.048;15.390;2022-12-17T14:24:48;0.53;;;0.50;;
12758;SDS011;20944;47.048;15.390;2022-12-17T14:27:21;2.70;;;1.80;;
12758;SDS011;20944;47.048;15.390;2022-12-17T14:29:51;0.43;;;0.30;;
12758;SDS011;20944;47.048;15.390;2022-12-17T14:32:22;1.40;;;1.27;;
12758;SDS011;20944;47.048;15.390;2022-12-17T14:34:52;0.13;;;0.13;;
12758;SDS011;20944;47.048;15.390;2022-12-17T14:37:26;0.70;;;0.60;;
12758;SDS011;20944;47.048;15.390;2022-12-17T14:39:57;0.40;;;0.40;;
12758;SDS011;20944;47.048;15.390;2022-12-17T14:42:28;0.60;;;0.40;;
12758;SDS011;20944;47.048;15.390;2022-12-17T14:44:58;0.57;;;0.57;;
12758;SDS011;20944;47.048;15.390;2022-12-17T14:47:29;0.50;;;0.37;;
12758;SDS011;20944;47.048;15.390;2022-12-17T14:50:00;0.40;;;0.30;;
12758;SDS011;20944;47.048;15.390;2022-12-17T14:52:38;0.30;;;0.30;;
12758;SDS011;20944;47.048;15.390;2022-12-17T14:55:27;4.63;;;1.37;;
12758;SDS011;20944;47.048;15.390;2022-12-17T14:58:14;0.20;;;0.20;;
12758;SDS011;20944;47.048;15.390;2022-12-17T15:00:44;0.50;;;0.50;;
12758;SDS011;20944;47.048;15.390;2022-12-17T15:03:17;0.40;;;0.20;;
12758;SDS011;20944;47.048;15.390;2022-12-17T15:05:50;0.30;;;0.30;;
12758;SDS011;20944;47.048;15.390;2022-12-17T15:08:21;1.70;;;0.30;;
12758;SDS011;20944;47.048;15.390;2022-12-17T15:10:51;1.07;;;0.97;;
12758;SDS011;20944;47.048;15.390;2022-12-17T15:13:19;4.43;;;0.93;;
12758;SDS011;20944;47.048;15.390;2022-12-17T15:15:47;2.07;;;0.90;;
12758;SDS011;20944;47.048;15.390;2022-12-17T15:18:15;1.33;;;0.77;;
12758;SDS011;20944;47.048;15.390;2022-12-17T15:20:43;0.70;;;0.70;;
12758;SDS011;20944;47.048;15.390;2022-12-17T15:23:13;1.33;;;0.93;;
12758;SDS011;20944;47.048;15.390;2022-12-17T15:25:43;1.60;;;0.70;;
12758;SDS011;20944;47.048;15.390;2022-12-17T15:28:14;1.67;;;0.90;;
12758;SDS011;20944;47.048;15.390;2022-12-17T15:30:43;1.10;;;0.87;;
12758;SDS011;20944;47.048;15.390;2022-12-17T15:33:12;1.70;;;1.33;;
12758;SDS011;20944;47.048;15.390;2022-12-17T15:35:40;1.83;;;1.73;;
12758;SDS011;20944;47.048;15.390;2022-12-17T15:38:09;1.93;;;1.30;;
12758;SDS011;20944;47.048;15.390;2022-12-17T15:40:39;3.77;;;1.73;;
12758;SDS011;20944;47.048;15.390;2022-12-17T15:43:08;1.17;;;0.90;;
12758;SDS011;20944;47.048;15.390;2022-12-17T15:45:41;1.37;;;1.27;;
12758;SDS011;20944;47.048;15.390;2022-12-17T15:48:11;2.30;;;1.67;;
12758;SDS011;20944;47.048;15.390;2022-12-17T15:50:41;2.03;;;1.93;;
12758;SDS011;20944;47.048;15.390;2022-12-17T15:53:09;2.73;;;2.03;;
12758;SDS011;20944;47.048;15.390;2022-12-17T15:55:37;4.13;;;1.10;;
12758;SDS011;20944;47.048;15.390;2022-12-17T15:58:06;1.63;;;1.33;;
12758;SDS011;20944;47.048;15.390;2022-12-17T16:00:36;0.80;;;0.80;;
12758;SDS011;20944;47.048;15.390;2022-12-17T16:03:05;1.43;;;0.90;;
12758;SDS011;20944;47.048;15.390;2022-12-17T16:05:34;2.40;;;1.00;;
12758;SDS011;20944;47.048;15.390;2022-12-17T16:08:02;1.57;;;1.07;;
12758;SDS011;20944;47.048;15.390;2022-12-17T16:10:30;3.10;;;2.03;;
12758;SDS011;20944;47.048;15.390;2022-12-17T16:12:58;1.03;;;0.60;;
12758;SDS011;20944;47.048;15.390;2022-12-17T16:15:26;1.53;;;1.03;;
12758;SDS011;20944;47.048;15.390;2022-12-17T16:17:55;2.47;;;1.77;;
12758;SDS011;20944;47.048;15.390;2022-12-17T16:20:25;1.77;;;1.43;;
12758;SDS011;20944;47.048;15.390;2022-12-17T16:22:53;4.27;;;1.33;;
12758;SDS011;20944;47.048;15.390;2022-12-17T16:25:21;1.80;;;0.93;;